createdAt,value
2018-07-11T09:03:58.222Z,19.17
2018-07-11T09:06:39.886Z,18.20
2018-07-11T09:09:16.989Z,19.00
2018-07-11T09:11:53.983Z,20.73
2018-07-11T09:14:34.344Z,18.47
2018-07-11T09:19:17.966Z,15.85
2018-07-11T09:21:59.639Z,18.12
2018-07-11T09:24:53.775Z,14.67
2018-07-11T09:27:23.141Z,13.55
2018-07-11T09:29:55.840Z,15.63
2018-07-11T09:32:26.931Z,16.32
2018-07-11T09:34:57.890Z,16.35
2018-07-11T09:37:39.896Z,18.50
2018-07-11T09:40:09.926Z,17.62
2018-07-11T09:42:40.411Z,13.98
2018-07-11T09:45:10.256Z,13.93
2018-07-11T09:47:40.618Z,13.40
2018-07-11T09:50:10.337Z,13.22
2018-07-11T09:52:39.516Z,14.33
2018-07-11T09:55:10.308Z,12.47
2018-07-11T09:57:41.168Z,13.67
2018-07-11T10:00:13.708Z,12.63
2018-07-11T10:02:51.532Z,12.63
2018-07-11T10:05:26.044Z,11.80
2018-07-11T10:07:55.915Z,12.90
2018-07-11T10:10:24.286Z,14.97
2018-07-11T10:12:52.872Z,13.70
2018-07-11T10:15:21.326Z,13.53
2018-07-11T10:17:50.618Z,11.30
2018-07-11T10:20:22.234Z,12.83
2018-07-11T10:22:51.129Z,11.70
2018-07-11T10:25:19.912Z,11.13
2018-07-11T10:27:54.375Z,11.43
2018-07-11T10:30:23.722Z,12.47
2018-07-11T10:32:53.722Z,11.73
2018-07-11T10:35:22.267Z,14.60
2018-07-11T10:37:54.242Z,14.27
2018-07-11T10:40:23.492Z,12.87
2018-07-11T10:42:52.399Z,11.00
2018-07-11T10:45:21.411Z,13.40
2018-07-11T10:47:49.979Z,9.30
2018-07-11T10:50:19.651Z,11.07
2018-07-11T10:52:48.285Z,11.03
2018-07-11T10:55:18.682Z,8.40
2018-07-11T10:57:50.248Z,7.57
2018-07-11T11:00:36.654Z,9.13
2018-07-11T11:03:01.555Z,9.07
2018-07-11T11:05:35.998Z,7.97
2018-07-11T11:08:09.493Z,8.27
2018-07-11T11:10:41.480Z,8.80
2018-07-11T11:13:10.131Z,9.23
2018-07-11T11:15:40.132Z,8.83
2018-07-11T11:18:11.479Z,7.20
2018-07-11T11:20:46.928Z,9.80
2018-07-11T11:23:20.421Z,10.07
2018-07-11T11:25:52.700Z,10.83
2018-07-11T11:28:22.945Z,15.23
2018-07-11T11:30:53.761Z,9.80
2018-07-11T11:33:24.562Z,8.57
2018-07-11T11:35:56.727Z,13.00
2018-07-11T11:38:28.314Z,8.70
2018-07-11T11:41:00.564Z,8.67
2018-07-11T11:43:38.231Z,9.07
2018-07-11T11:46:10.366Z,9.60
2018-07-11T11:48:44.938Z,11.97
2018-07-11T11:51:15.243Z,14.13
2018-07-11T11:53:45.721Z,8.33
2018-07-11T11:56:18.236Z,7.60
2018-07-11T11:58:56.483Z,11.00
2018-07-11T12:01:32.065Z,10.17
2018-07-11T12:04:02.862Z,10.50
2018-07-11T12:06:33.452Z,13.83
2018-07-11T12:09:12.947Z,8.23
2018-07-11T12:11:45.838Z,14.83
2018-07-11T12:14:17.699Z,10.30
2018-07-11T12:16:59.358Z,9.53
2018-07-11T12:19:36.007Z,9.33
2018-07-11T12:22:11.409Z,9.40
2018-07-11T12:24:46.419Z,8.70
2018-07-11T12:27:25.075Z,9.17
2018-07-11T12:30:06.580Z,8.47
2018-07-11T12:32:36.856Z,9.03
2018-07-11T12:35:12.049Z,11.43
2018-07-11T12:37:47.008Z,6.13
2018-07-11T12:40:20.285Z,9.00
2018-07-11T12:42:55.778Z,6.80
2018-07-11T12:45:26.993Z,8.63
2018-07-11T12:49:04.519Z,4.27
2018-07-11T12:51:37.583Z,7.60
2018-07-11T12:54:16.224Z,10.50
2018-07-11T12:56:44.826Z,9.63
2018-07-11T12:59:13.694Z,10.43
2018-07-11T13:01:42.630Z,9.73
2018-07-11T13:04:14.430Z,7.50
2018-07-11T13:06:45.545Z,4.53
2018-07-11T13:09:17.718Z,5.20
2018-07-11T13:11:53.464Z,4.77
2018-07-11T13:14:26.015Z,4.43
2018-07-11T13:17:04.185Z,6.90
2018-07-11T13:19:33.608Z,3.13
2018-07-11T13:22:28.223Z,2.93
2018-07-11T19:17:09.438Z,111.13
2018-07-11T19:19:49.323Z,95.60
2018-07-11T19:23:30.968Z,81.83
2018-07-11T19:26:21.574Z,90.00
2018-07-11T19:29:05.344Z,84.80
2018-07-11T19:31:45.638Z,71.93
2018-07-11T19:34:56.433Z,92.03
2018-07-11T19:37:41.833Z,58.20
2018-07-11T19:41:21.369Z,61.67
2018-07-11T19:46:05.296Z,69.00
2018-07-11T19:50:52.971Z,69.13
2018-07-11T19:53:34.059Z,77.50
2018-07-11T19:56:11.801Z,81.00
2018-07-11T19:58:46.706Z,78.03
2018-07-11T20:04:47.666Z,72.53
2018-07-11T20:07:16.255Z,76.10
2018-07-11T20:09:46.126Z,62.43
2018-07-11T20:12:16.127Z,71.07
2018-07-11T20:14:45.482Z,70.13
2018-07-11T20:17:14.559Z,68.87
2018-07-11T20:19:44.040Z,69.57
2018-07-11T20:22:12.807Z,83.43
2018-07-11T20:24:41.883Z,92.90
2018-07-11T20:27:11.399Z,86.67
2018-07-11T20:29:41.347Z,67.93
2018-07-11T20:32:10.852Z,80.17
2018-07-11T20:34:40.546Z,106.27
2018-07-11T20:37:09.822Z,67.50
2018-07-11T20:39:38.898Z,81.53
2018-07-11T20:42:08.310Z,78.37
2018-07-11T20:44:37.750Z,102.53
2018-07-11T20:47:08.342Z,87.00
2018-07-11T20:49:37.970Z,136.40
2018-07-11T20:52:07.210Z,81.60
2018-07-11T20:54:36.316Z,97.23
2018-07-11T20:57:05.576Z,80.20
2018-07-11T20:59:45.400Z,78.23
2018-07-11T21:02:25.362Z,75.30
2018-07-11T21:05:33.640Z,73.03
2018-07-11T21:08:09.699Z,73.20
2018-07-11T21:12:52.036Z,68.17
2018-07-11T21:16:33.166Z,67.43
2018-07-11T21:19:10.865Z,87.50
2018-07-11T21:21:40.223Z,70.80
2018-07-11T21:24:10.031Z,70.67
2018-07-11T21:26:38.751Z,78.27
2018-07-11T21:32:38.368Z,62.87
2018-07-11T21:35:06.787Z,62.97
2018-07-11T21:37:35.140Z,80.37
2018-07-11T21:40:04.119Z,57.00
2018-07-11T21:42:33.524Z,45.53
2018-07-11T21:45:02.248Z,40.17
2018-07-11T21:47:30.449Z,34.23
2018-07-11T21:49:59.664Z,45.73
2018-07-11T21:52:28.712Z,42.93
2018-07-11T21:54:58.184Z,47.13
2018-07-11T21:57:27.187Z,48.57
2018-07-11T21:59:56.099Z,49.93
2018-07-11T22:02:25.214Z,52.23
2018-07-11T22:04:54.172Z,41.57
2018-07-11T22:07:23.135Z,45.50
2018-07-11T22:09:52.087Z,38.93
2018-07-11T22:12:21.128Z,40.80
2018-07-11T22:14:49.875Z,45.17
2018-07-11T22:19:34.436Z,54.67
2018-07-11T22:22:02.011Z,57.47
2018-07-11T22:24:29.435Z,59.17
2018-07-11T22:26:56.452Z,59.27
2018-07-11T22:29:23.909Z,59.10
2018-07-11T22:31:51.029Z,62.60
2018-07-11T22:34:18.684Z,65.53
2018-07-11T22:36:46.409Z,77.83
2018-07-11T22:39:13.830Z,70.27
2018-07-11T22:41:41.439Z,76.97
2018-07-11T22:44:09.977Z,82.90
2018-07-11T22:46:38.731Z,83.73
2018-07-11T22:49:08.140Z,95.57
2018-07-11T22:51:37.039Z,84.70
2018-07-11T22:54:05.636Z,81.37
2018-07-11T22:56:34.853Z,88.47
2018-07-11T22:59:03.135Z,84.60
2018-07-11T23:01:31.119Z,97.13
2018-07-11T23:04:00.530Z,84.57
2018-07-11T23:06:30.284Z,90.63
2018-07-11T23:08:57.943Z,79.83
2018-07-11T23:11:27.203Z,81.27
2018-07-11T23:13:55.840Z,93.23
2018-07-11T23:16:24.613Z,84.90
2018-07-11T23:18:53.133Z,81.93
2018-07-11T23:21:21.439Z,94.80
2018-07-11T23:23:51.436Z,89.37
2018-07-11T23:26:21.290Z,93.83
2018-07-11T23:28:49.658Z,96.43
2018-07-11T23:31:18.053Z,100.13
2018-07-11T23:33:46.637Z,96.30
2018-07-11T23:36:15.355Z,94.33
2018-07-11T23:38:44.388Z,95.07
2018-07-11T23:41:12.004Z,90.47
2018-07-11T23:43:39.628Z,93.03
2018-07-11T23:46:07.203Z,95.13
2018-07-11T23:48:35.803Z,74.97
2018-07-11T23:51:02.914Z,84.30
2018-07-11T23:53:30.537Z,85.00
2018-07-11T23:56:01.021Z,77.47
2018-07-11T23:58:30.279Z,80.40
